Time;durP1;ratioP1;P1;durP2;ratioP2;P2;SDS_P1;SDS_P2;PMS_P1;PMS_P2;Temp;Humidity;BMP_temperature;BMP_pressure;BME280_temperature;BME280_humidity;BME280_pressure;Samples;Min_cycle;Max_cycle;Signal;HPM_P1;HPM_P2
2021/06/14 00:01:29;;;;;;;9.57;3.85;;;15.00;74.10;;;;;;4997075;28;20022;-72
2021/06/14 00:03:55;;;;;;;10.30;4.70;;;15.00;74.50;;;;;;4996901;28;20489;-72
2021/06/14 00:06:20;;;;;;;7.20;3.95;;;15.00;74.20;;;;;;4997609;28;20117;-72
2021/06/14 00:08:46;;;;;;;;;;;14.90;74.20;;;;;;4996159;28;20026;-72
2021/06/14 00:11:12;;;;;;;6.10;3.92;;;14.90;74.30;;;;;;4996725;28;19914;-72
2021/06/14 00:13:38;;;;;;;6.65;4.93;;;14.90;74.90;;;;;;4997457;28;20117;-72
2021/06/14 00:16:06;;;;;;;12.32;3.88;;;14.90;75.50;;;;;;4998109;28;20076;-71
2021/06/14 00:18:33;;;;;;;6.15;4.32;;;14.80;75.60;;;;;;4996637;28;20061;-71
2021/06/14 00:21:03;;;;;;;7.13;5.20;;;14.80;76.00;;;;;;4997574;28;20076;-71
2021/06/14 00:23:31;;;;;;;6.47;3.80;;;14.70;75.30;;;;;;4995574;28;20407;-71
2021/06/14 00:25:58;;;;;;;9.30;4.60;;;14.70;75.40;;;;;;4997745;28;20606;-70
2021/06/14 00:28:25;;;;;;;7.43;3.88;;;14.60;75.70;;;;;;4994152;28;20456;-71
2021/06/14 00:30:51;;;;;;;5.03;4.13;;;14.60;76.20;;;;;;4996566;28;20038;-71
2021/06/14 00:33:17;;;;;;;7.15;4.05;;;14.60;75.90;;;;;;4996568;28;20464;-70
2021/06/14 00:35:45;;;;;;;12.00;5.85;;;14.50;76.50;;;;;;4996770;28;20105;-71
2021/06/14 00:38:11;;;;;;;6.85;4.07;;;14.50;76.30;;;;;;4996749;28;20275;-71
2021/06/14 00:40:37;;;;;;;6.63;3.50;;;14.50;77.00;;;;;;4994825;28;20037;-71
2021/06/14 00:43:04;;;;;;;10.65;4.97;;;14.50;76.80;;;;;;4998986;28;20018;-71
2021/06/14 00:45:31;;;;;;;7.80;4.40;;;14.50;76.70;;;;;;4997986;28;20465;-71
2021/06/14 00:47:58;;;;;;;7.05;4.38;;;14.40;76.80;;;;;;4997050;28;20036;-71
2021/06/14 00:50:44;;;;;;;9.98;4.47;;;14.40;77.10;;;;;;4997848;28;20105;-71
2021/06/14 00:53:21;;;;;;;11.23;5.25;;;14.40;77.80;;;;;;4997207;28;20105;-70
2021/06/14 00:55:47;;;;;;;9.75;5.13;;;14.40;77.60;;;;;;4995723;28;20032;-71
2021/06/14 00:58:13;;;;;;;10.65;4.45;;;14.30;77.90;;;;;;4994974;28;20038;-71
2021/06/14 01:00:39;;;;;;;12.32;5.22;;;14.30;78.40;;;;;;5004261;28;20069;-71
2021/06/14 01:03:06;;;;;;;12.57;5.18;;;14.30;78.20;;;;;;4997281;28;20034;-71
2021/06/14 01:05:37;;;;;;;7.30;5.40;;;14.20;78.50;;;;;;4997004;28;20568;-71
2021/06/14 01:08:05;;;;;;;7.63;3.95;;;14.20;78.40;;;;;;4996002;28;20429;-70
2021/06/14 01:10:31;;;;;;;10.52;4.95;;;14.20;79.20;;;;;;4997009;28;20485;-71
2021/06/14 01:13:09;;;;;;;8.13;5.20;;;14.10;78.80;;;;;;4995923;28;20022;-70
2021/06/14 01:16:01;;;;;;;7.50;4.13;;;14.00;79.70;;;;;;4997606;28;20385;-70
2021/06/14 01:18:36;;;;;;;10.13;4.57;;;13.90;80.30;;;;;;4995434;28;20048;-70
2021/06/14 01:21:16;;;;;;;8.32;4.72;;;13.90;80.10;;;;;;4996207;28;20324;-71
2021/06/14 01:24:08;;;;;;;10.68;4.30;;;13.90;80.80;;;;;;4996924;28;20054;-71
2021/06/14 01:26:49;;;;;;;6.07;3.92;;;13.90;80.90;;;;;;5002674;28;20029;-70
2021/06/14 01:29:15;;;;;;;8.65;3.45;;;13.90;81.10;;;;;;4995169;28;20037;-70
2021/06/14 01:31:42;;;;;;;6.22;3.53;;;13.80;80.90;;;;;;4996538;28;20101;-70
2021/06/14 01:34:09;;;;;;;7.28;4.00;;;13.80;81.30;;;;;;5000114;28;20487;-70
2021/06/14 01:36:36;;;;;;;6.20;4.00;;;13.80;81.50;;;;;;5000856;28;20125;-71
2021/06/14 01:39:05;;;;;;;6.53;4.50;;;13.70;81.40;;;;;;5000267;28;20140;-70
2021/06/14 01:41:32;;;;;;;4.97;3.45;;;13.70;82.30;;;;;;4999192;28;20081;-70
2021/06/14 01:44:00;;;;;;;5.68;4.28;;;13.70;82.40;;;;;;5000719;28;20029;-70
2021/06/14 01:46:29;;;;;;;7.65;5.25;;;13.70;82.40;;;;;;4999300;28;20058;-71
2021/06/14 01:48:55;;;;;;;7.40;4.43;;;13.60;82.40;;;;;;4998899;28;20088;-70
2021/06/14 01:51:26;;;;;;;5.10;3.45;;;13.60;81.90;;;;;;5000236;28;20021;-70
2021/06/14 01:54:07;;;;;;;7.95;4.35;;;13.60;81.90;;;;;;5000617;28;20053;-70
2021/06/14 01:56:44;;;;;;;7.50;3.83;;;13.60;82.70;;;;;;4998531;28;20022;-71
2021/06/14 01:59:23;;;;;;;7.03;4.40;;;13.50;82.60;;;;;;4999503;28;20025;-70
2021/06/14 02:01:49;;;;;;;5.45;3.83;;;13.50;82.60;;;;;;5004882;28;20145;-70
2021/06/14 02:04:16;;;;;;;7.78;4.95;;;13.40;82.10;;;;;;5000258;28;20014;-70
2021/06/14 02:06:44;;;;;;;13.15;4.97;;;13.50;81.90;;;;;;4998765;28;20120;-70
2021/06/14 02:09:13;;;;;;;6.10;4.57;;;13.50;82.40;;;;;;5005861;28;20481;-70
2021/06/14 02:11:45;;;;;;;7.68;5.07;;;13.50;82.70;;;;;;4999679;28;20181;-70
2021/06/14 02:14:39;;;;;;;5.22;3.60;;;13.50;82.80;;;;;;4999892;28;20017;-70
2021/06/14 02:17:07;;;;;;;7.35;3.92;;;13.40;82.80;;;;;;4998253;28;20080;-70
2021/06/14 02:19:33;;;;;;;19.90;6.20;;;13.40;82.80;;;;;;4997106;28;20488;-70
2021/06/14 02:21:58;;;;;;;;;;;13.30;82.50;;;;;;5000573;28;20026;-70
2021/06/14 02:24:24;;;;;;;5.57;3.70;;;13.30;83.00;;;;;;4999601;28;20353;-70
2021/06/14 02:26:49;;;;;;;;;;;13.20;83.40;;;;;;4998324;28;20092;-70
2021/06/14 02:29:16;;;;;;;10.15;4.35;;;13.20;83.70;;;;;;4998584;28;20100;-70
2021/06/14 02:31:42;;;;;;;9.23;4.15;;;13.20;83.30;;;;;;4998884;28;20453;-70
2021/06/14 02:34:07;;;;;;;;;;;13.10;83.90;;;;;;5000286;28;20029;-70
2021/06/14 02:36:35;;;;;;;8.48;4.22;;;13.10;83.50;;;;;;4999509;28;20782;-70
2021/06/14 02:39:05;;;;;;;9.10;5.10;;;13.10;83.70;;;;;;5005309;28;20084;-70
2021/06/14 02:41:31;;;;;;;5.78;4.15;;;13.10;83.50;;;;;;4998710;28;20031;-70
2021/06/14 02:43:56;;;;;;;;;;;13.10;83.40;;;;;;4998182;28;20358;-70
2021/06/14 02:46:22;;;;;;;10.18;7.05;;;13.00;83.40;;;;;;4999208;28;20289;-70
2021/06/14 02:48:49;;;;;;;;;;;13.00;83.80;;;;;;5001433;28;20473;-70
2021/06/14 02:51:15;;;;;;;9.30;4.70;;;13.10;83.60;;;;;;5000730;28;20114;-70
2021/06/14 02:53:43;;;;;;;9.27;3.50;;;13.10;83.60;;;;;;5000578;28;20352;-70
2021/06/14 02:56:12;;;;;;;7.22;4.32;;;13.00;83.50;;;;;;4998930;28;20030;-70
2021/06/14 02:58:46;;;;;;;9.73;3.72;;;13.00;83.20;;;;;;4997147;28;20038;-70
2021/06/14 03:01:12;;;;;;;6.60;4.22;;;13.00;83.40;;;;;;5000381;28;20064;-70
2021/06/14 03:03:40;;;;;;;6.13;4.20;;;12.90;83.70;;;;;;4999592;28;20030;-70
2021/06/14 03:06:11;;;;;;;7.10;3.72;;;13.00;83.50;;;;;;5000143;28;20473;-70
2021/06/14 03:08:38;;;;;;;8.15;3.58;;;13.00;83.50;;;;;;4999995;28;20030;-70
2021/06/14 03:11:04;;;;;;;6.65;4.32;;;13.10;83.30;;;;;;4999871;28;20015;-70
2021/06/14 03:13:29;;;;;;;;;;;13.10;83.10;;;;;;5001199;28;20296;-70
2021/06/14 03:15:55;;;;;;;8.02;3.15;;;13.10;83.10;;;;;;4999679;28;19913;-70
2021/06/14 03:18:22;;;;;;;;;;;13.10;83.00;;;;;;5000124;28;20034;-70
2021/06/14 03:20:52;;;;;;;7.10;3.67;;;13.10;83.00;;;;;;5002322;28;19920;-70
2021/06/14 03:23:17;;;;;;;7.45;3.67;;;13.10;83.20;;;;;;5000612;28;20045;-70
2021/06/14 03:25:43;;;;;;;;;;;13.10;83.20;;;;;;4999797;28;20030;-70
2021/06/14 03:28:09;;;;;;;11.88;3.80;;;13.10;83.10;;;;;;4997875;28;19916;-70
2021/06/14 03:30:35;;;;;;;7.18;3.72;;;13.10;83.00;;;;;;4998526;28;20607;-70
2021/06/14 03:33:05;;;;;;;6.97;4.07;;;13.20;82.70;;;;;;4999146;28;20033;-70
2021/06/14 03:35:31;;;;;;;6.13;3.55;;;13.20;82.50;;;;;;4997050;28;20426;-70
2021/06/14 03:37:57;;;;;;;8.18;4.18;;;13.20;82.30;;;;;;4998847;28;20080;-70
2021/06/14 03:40:22;;;;;;;;;;;13.30;82.20;;;;;;4996236;28;20030;-70
2021/06/14 03:42:48;;;;;;;7.97;3.58;;;13.80;81.90;;;;;;4992508;28;19932;-70
2021/06/14 03:45:14;;;;;;;;;;;14.30;81.20;;;;;;4996824;28;20029;-70
2021/06/14 03:47:40;;;;;;;4.05;2.63;;;14.80;80.30;;;;;;4994962;28;19921;-70
2021/06/14 03:50:07;;;;;;;;;;;15.40;78.30;;;;;;4994287;28;20101;-70
2021/06/14 03:52:33;;;;;;;4.72;3.20;;;15.80;77.10;;;;;;4998825;28;19996;-70
2021/06/14 03:54:58;;;;;;;;;;;16.20;76.60;;;;;;4995440;28;20113;-70
2021/06/14 03:57:24;;;;;;;9.00;4.05;;;16.50;75.20;;;;;;4994962;28;19913;-70
2021/06/14 03:59:49;;;;;;;8.00;4.18;;;16.90;73.60;;;;;;4993982;28;21414;-71
2021/06/14 04:02:15;;;;;;;6.60;2.83;;;17.20;72.20;;;;;;4993963;28;20047;-70
2021/06/14 04:04:43;;;;;;;6.32;3.72;;;17.50;71.00;;;;;;4994880;28;20030;-71
2021/06/14 04:07:09;;;;;;;4.82;4.00;;;17.70;69.10;;;;;;4996478;28;20026;-71
2021/06/14 04:09:36;;;;;;;9.13;3.67;;;17.90;69.10;;;;;;4994542;28;20037;-71
2021/06/14 04:12:03;;;;;;;10.35;3.70;;;18.20;70.20;;;;;;4993834;28;20234;-71
2021/06/14 04:14:29;;;;;;;6.90;3.33;;;18.30;67.80;;;;;;4998235;28;20030;-71
2021/06/14 04:16:55;;;;;;;8.07;4.43;;;18.40;67.40;;;;;;4994465;28;20031;-71
2021/06/14 04:19:20;;;;;;;6.55;3.58;;;18.70;67.30;;;;;;4993201;28;20030;-71
2021/06/14 04:21:46;;;;;;;9.45;4.68;;;19.00;65.30;;;;;;4994276;28;20091;-71
2021/06/14 04:24:12;;;;;;;14.73;3.75;;;19.10;65.40;;;;;;4995575;28;20169;-71
2021/06/14 04:26:37;;;;;;;8.27;3.53;;;19.20;65.60;;;;;;4994424;28;20034;-71
2021/06/14 04:29:04;;;;;;;8.50;3.28;;;19.40;64.40;;;;;;4994560;28;20029;-71
2021/06/14 04:31:30;;;;;;;3.78;2.72;;;19.60;62.70;;;;;;4994798;28;20033;-71
2021/06/14 04:33:56;;;;;;;6.13;3.78;;;19.80;63.10;;;;;;4998035;28;20032;-71
2021/06/14 04:36:21;;;;;;;7.30;3.80;;;20.00;62.70;;;;;;4995353;28;20370;-73
2021/06/14 04:38:47;;;;;;;6.40;3.70;;;20.40;63.40;;;;;;4994972;28;20385;-74
2021/06/14 04:41:12;;;;;;;8.05;4.13;;;21.00;61.30;;;;;;4995925;28;20169;-75
2021/06/14 04:43:38;;;;;;;6.95;3.30;;;21.60;60.90;;;;;;4995595;28;20026;-75
2021/06/14 04:46:05;;;;;;;7.70;3.22;;;22.10;59.50;;;;;;5003167;28;20018;-73
2021/06/14 04:48:31;;;;;;;8.63;3.60;;;22.40;57.70;;;;;;4996407;28;20077;-74
2021/06/14 04:50:56;;;;;;;7.18;2.83;;;22.60;57.60;;;;;;4996093;28;20065;-73
2021/06/14 04:53:22;;;;;;;5.93;3.50;;;23.00;56.60;;;;;;4994395;28;20076;-74
2021/06/14 04:55:47;;;;;;;4.10;2.80;;;23.20;54.80;;;;;;4997196;28;20477;-72
2021/06/14 04:58:13;;;;;;;5.63;3.03;;;23.30;54.70;;;;;;4994937;28;20045;-72
2021/06/14 05:00:39;;;;;;;9.63;3.65;;;23.50;54.40;;;;;;4996025;28;20445;-72
2021/06/14 05:03:04;;;;;;;9.90;3.55;;;23.90;54.50;;;;;;4991847;28;20039;-70
2021/06/14 05:05:30;;;;;;;4.72;2.85;;;24.00;51.60;;;;;;4993915;28;20045;-69
2021/06/14 05:07:55;;;;;;;5.93;3.90;;;23.90;51.70;;;;;;5012653;28;20417;-70
2021/06/14 05:10:21;;;;;;;9.88;3.90;;;23.80;51.70;;;;;;5002394;28;20026;-69
2021/06/14 05:12:47;;;;;;;52.95;12.55;;;23.70;51.40;;;;;;5016547;28;20072;-69
2021/06/14 05:15:12;;;;;;;60.25;11.45;;;23.80;52.00;;;;;;5002126;28;20037;-70
2021/06/14 05:17:38;;;;;;;45.70;8.90;;;23.90;51.20;;;;;;4999767;28;20038;-69
2021/06/14 05:20:05;;;;;;;27.85;9.88;;;24.00;51.00;;;;;;4997929;28;20045;-69
2021/06/14 05:22:30;;;;;;;15.07;8.18;;;24.10;50.60;;;;;;4999901;28;20033;-70
2021/06/14 05:24:56;;;;;;;13.70;8.07;;;24.30;50.40;;;;;;5002297;28;20404;-69
2021/06/14 05:27:22;;;;;;;7.30;4.20;;;24.50;49.80;;;;;;5002274;28;20398;-71
2021/06/14 05:29:47;;;;;;;8.35;6.07;;;24.60;49.60;;;;;;4999565;28;20074;-72
2021/06/14 05:32:13;;;;;;;12.57;6.18;;;24.70;49.10;;;;;;5000813;28;20080;-72
2021/06/14 05:34:38;;;;;;;18.17;5.72;;;24.90;48.90;;;;;;5002316;28;20018;-72
2021/06/14 05:37:04;;;;;;;10.82;5.45;;;25.10;48.60;;;;;;5000242;28;20444;-72
2021/06/14 05:39:29;;;;;;;16.40;8.73;;;24.90;48.30;;;;;;5001758;28;20069;-72
2021/06/14 05:41:55;;;;;;;22.42;5.20;;;24.70;48.80;;;;;;5001825;28;20046;-72
2021/06/14 05:44:21;;;;;;;49.83;7.13;;;24.70;48.80;;;;;;5001309;28;20022;-72
2021/06/14 05:46:46;;;;;;;35.10;7.32;;;24.40;49.10;;;;;;5000235;28;20065;-72
2021/06/14 05:49:12;;;;;;;58.65;6.40;;;24.20;49.50;;;;;;4999762;28;20049;-72
2021/06/14 05:51:38;;;;;;;88.53;11.05;;;24.00;49.60;;;;;;5001939;28;20583;-72
2021/06/14 05:54:05;;;;;;;67.50;10.07;;;23.70;49.60;;;;;;5000368;28;20076;-72
2021/06/14 05:56:30;;;;;;;91.57;14.85;;;23.50;50.60;;;;;;5002296;28;20473;-71
2021/06/14 05:58:56;;;;;;;124.93;15.85;;;23.40;50.60;;;;;;5000202;28;20042;-72
2021/06/14 06:01:22;;;;;;;29.17;6.65;;;23.30;51.10;;;;;;5001205;28;20028;-72
2021/06/14 06:03:47;;;;;;;110.32;14.88;;;23.20;51.30;;;;;;5000039;28;20096;-72
2021/06/14 06:06:13;;;;;;;54.38;8.10;;;23.20;51.30;;;;;;5000279;28;20040;-72
2021/06/14 06:08:38;;;;;;;109.45;12.75;;;23.10;51.60;;;;;;4999568;28;20037;-72
2021/06/14 06:11:04;;;;;;;47.85;8.70;;;23.10;51.60;;;;;;4997796;28;20476;-72
2021/06/14 06:13:30;;;;;;;92.28;11.45;;;23.00;52.00;;;;;;4995354;28;20805;-72
2021/06/14 06:15:55;;;;;;;72.60;10.52;;;22.80;52.40;;;;;;4996300;28;20034;-75
2021/06/14 06:18:21;;;;;;;47.70;14.80;;;22.70;52.40;;;;;;4998993;28;20425;-75
2021/06/14 06:20:47;;;;;;;58.00;15.63;;;22.80;52.50;;;;;;4993977;28;20057;-75
2021/06/14 06:23:12;;;;;;;71.45;10.82;;;23.00;52.20;;;;;;4991318;28;20034;-75
2021/06/14 06:25:38;;;;;;;61.85;8.40;;;22.90;52.00;;;;;;4990008;28;20036;-75
2021/06/14 06:28:03;;;;;;;29.17;7.90;;;22.90;52.40;;;;;;4985060;28;20437;-76
2021/06/14 06:30:30;;;;;;;14.57;7.93;;;22.90;52.60;;;;;;4986248;28;20068;-76
2021/06/14 06:32:57;;;;;;;6.60;3.60;;;23.00;52.60;;;;;;4982141;28;20026;-77
2021/06/14 06:35:23;;;;;;;9.93;3.63;;;22.90;52.10;;;;;;4989141;28;20466;-76
2021/06/14 06:37:49;;;;;;;11.18;4.25;;;22.90;52.40;;;;;;4989109;28;20105;-76
2021/06/14 06:40:15;;;;;;;8.32;4.00;;;22.90;52.80;;;;;;4982049;28;20057;-75
2021/06/14 06:42:42;;;;;;;10.07;3.35;;;23.00;52.60;;;;;;4990765;28;20038;-76
2021/06/14 06:45:09;;;;;;;15.50;4.38;;;23.10;52.50;;;;;;4981707;28;20583;-75
2021/06/14 06:47:35;;;;;;;5.63;3.40;;;23.10;52.50;;;;;;4990157;28;20093;-75
2021/06/14 06:50:02;;;;;;;9.20;3.67;;;23.20;52.80;;;;;;4988992;28;20029;-75
2021/06/14 06:52:27;;;;;;;8.15;4.30;;;23.30;52.70;;;;;;4989586;28;20117;-75
2021/06/14 06:54:53;;;;;;;9.70;4.72;;;23.40;52.60;;;;;;4988469;28;20110;-75
2021/06/14 06:57:20;;;;;;;8.18;4.15;;;23.30;52.40;;;;;;4988849;28;20482;-75
2021/06/14 06:59:46;;;;;;;20.45;5.93;;;23.40;52.80;;;;;;4988163;28;20495;-75
2021/06/14 07:02:11;;;;;;;17.15;5.07;;;23.40;52.80;;;;;;4990873;28;20030;-75
2021/06/14 07:04:37;;;;;;;9.43;3.47;;;23.50;52.20;;;;;;4989893;28;20481;-74
2021/06/14 07:07:04;;;;;;;14.63;5.07;;;23.50;52.40;;;;;;4990386;28;20093;-75
2021/06/14 07:09:29;;;;;;;11.88;5.80;;;23.60;52.90;;;;;;4985057;28;20623;-75
2021/06/14 07:11:56;;;;;;;12.63;5.00;;;23.70;52.10;;;;;;4989348;28;20058;-77
2021/06/14 07:14:23;;;;;;;8.07;3.80;;;23.60;51.70;;;;;;4979469;28;20054;-75
2021/06/14 07:16:49;;;;;;;10.10;5.10;;;23.60;52.40;;;;;;4989121;28;20509;-75
2021/06/14 07:19:14;;;;;;;11.45;4.03;;;23.80;52.50;;;;;;4989419;28;20030;-74
2021/06/14 07:21:40;;;;;;;10.73;4.75;;;23.70;52.10;;;;;;4984587;28;20045;-75
2021/06/14 07:24:06;;;;;;;8.05;4.50;;;23.90;51.80;;;;;;4989018;28;20027;-74
2021/06/14 07:26:33;;;;;;;12.68;5.05;;;23.90;51.90;;;;;;4989695;28;20018;-75
2021/06/14 07:28:59;;;;;;;8.52;4.78;;;23.60;51.10;;;;;;4988854;28;20025;-74
2021/06/14 07:31:24;;;;;;;16.83;6.78;;;23.40;52.10;;;;;;4987949;28;20030;-74
2021/06/14 07:33:50;;;;;;;13.93;7.07;;;23.50;52.20;;;;;;4989268;28;20023;-73
2021/06/14 07:36:16;;;;;;;15.85;7.03;;;23.60;52.40;;;;;;4989258;28;20027;-73
2021/06/14 07:38:41;;;;;;;18.75;10.55;;;23.60;51.80;;;;;;4986518;28;20448;-73
2021/06/14 07:41:07;;;;;;;47.65;11.25;;;23.70;52.30;;;;;;4989195;28;20058;-74
2021/06/14 07:43:33;;;;;;;32.80;19.33;;;23.90;52.00;;;;;;4989741;28;20433;-74
2021/06/14 07:45:59;;;;;;;25.83;13.10;;;23.90;51.20;;;;;;4989710;28;20049;-73
2021/06/14 07:48:25;;;;;;;24.63;13.40;;;23.80;51.60;;;;;;4987153;28;20038;-73
2021/06/14 07:50:52;;;;;;;24.70;9.10;;;23.80;51.50;;;;;;4988448;28;20050;-73
2021/06/14 07:53:19;;;;;;;20.17;9.90;;;23.80;51.30;;;;;;4988778;28;20485;-73
2021/06/14 07:55:45;;;;;;;18.20;8.73;;;23.80;50.90;;;;;;4986585;28;20045;-73
2021/06/14 07:58:11;;;;;;;40.10;19.58;;;23.90;50.30;;;;;;4988023;28;20429;-74
2021/06/14 08:00:39;;;;;;;25.40;9.32;;;23.90;51.40;;;;;;4986836;28;20041;-74
2021/06/14 08:03:04;;;;;;;36.42;9.65;;;24.20;51.00;;;;;;4988652;28;20030;-74
2021/06/14 08:05:30;;;;;;;61.63;11.13;;;24.40;51.00;;;;;;5002158;28;20599;-73
2021/06/14 08:07:55;;;;;;;21.48;6.82;;;24.60;50.00;;;;;;4986735;28;20032;-73
2021/06/14 08:10:22;;;;;;;11.07;5.28;;;24.50;49.80;;;;;;4988337;28;20436;-73
2021/06/14 08:12:50;;;;;;;11.82;5.15;;;24.70;49.90;;;;;;4987866;28;20034;-73
2021/06/14 08:15:24;;;;;;;25.08;6.82;;;24.70;50.00;;;;;;4988890;28;20482;-73
2021/06/14 08:17:51;;;;;;;15.82;4.45;;;24.90;49.70;;;;;;4988081;28;20080;-74
2021/06/14 08:20:28;;;;;;;20.55;6.00;;;24.90;49.40;;;;;;4986718;28;20027;-75
2021/06/14 08:25:38;;;;;;;4.00;2.53;;;25.10;47.90;;;;;;4989825;28;20033;-77
2021/06/14 08:28:05;;;;;;;8.15;2.88;;;25.00;48.20;;;;;;4987518;28;20468;-76
2021/06/14 08:30:31;;;;;;;6.40;3.13;;;25.00;48.60;;;;;;5002058;28;20030;-76
2021/06/14 08:32:57;;;;;;;5.90;2.83;;;24.90;48.20;;;;;;4989008;28;20025;-75
2021/06/14 08:35:25;;;;;;;7.18;2.67;;;24.80;48.70;;;;;;4987915;28;20030;-77
2021/06/14 08:37:53;;;;;;;6.93;2.60;;;24.80;48.40;;;;;;4989765;28;20022;-76
2021/06/14 08:40:24;;;;;;;5.88;3.00;;;25.00;48.00;;;;;;4987846;28;20035;-75
2021/06/14 08:42:50;;;;;;;7.97;3.17;;;25.00;48.00;;;;;;4992721;28;20478;-75
2021/06/14 08:45:16;;;;;;;11.05;3.97;;;25.20;48.20;;;;;;4991770;28;20136;-75
2021/06/14 08:47:44;;;;;;;6.43;2.83;;;25.40;47.80;;;;;;4991402;28;20474;-75
2021/06/14 08:50:12;;;;;;;5.82;2.95;;;25.50;47.40;;;;;;4991382;28;20441;-75
2021/06/14 08:52:38;;;;;;;6.22;3.03;;;25.50;46.90;;;;;;4992368;28;20647;-75
2021/06/14 08:55:06;;;;;;;8.55;2.92;;;25.50;47.20;;;;;;4992709;28;20445;-76
2021/06/14 08:57:32;;;;;;;8.00;3.00;;;25.70;46.70;;;;;;4992305;28;20485;-74
2021/06/14 08:59:58;;;;;;;6.47;2.25;;;25.60;46.80;;;;;;4991137;28;20030;-76
2021/06/14 09:02:24;;;;;;;6.07;2.75;;;25.60;46.60;;;;;;5008171;28;20026;-76
2021/06/14 09:04:49;;;;;;;5.60;3.38;;;25.50;46.40;;;;;;5005753;28;20042;-72
2021/06/14 09:07:15;;;;;;;7.72;2.70;;;25.40;46.70;;;;;;4991199;28;20034;-74
2021/06/14 09:09:42;;;;;;;12.68;3.83;;;25.30;46.80;;;;;;4985334;28;20022;-73
2021/06/14 09:12:08;;;;;;;15.30;3.45;;;25.20;47.40;;;;;;4991855;28;20072;-77
2021/06/14 09:14:40;;;;;;;5.90;3.55;;;25.40;49.60;;;;;;4990818;28;20075;-77
2021/06/14 09:17:17;;;;;;;4.45;2.83;;;25.50;48.80;;;;;;4991518;28;20109;-78
2021/06/14 09:19:52;;;;;;;7.85;2.80;;;25.70;53.70;;;;;;4991701;28;20030;-78
2021/06/14 09:22:20;;;;;;;8.45;3.60;;;25.60;50.90;;;;;;4987114;28;20038;-77
2021/06/14 09:25:01;;;;;;;7.30;3.13;;;25.50;50.50;;;;;;4990797;28;20528;-77
2021/06/14 09:27:33;;;;;;;6.25;2.40;;;25.30;50.20;;;;;;4991403;28;20038;-76
2021/06/14 09:30:14;;;;;;;7.07;3.38;;;25.20;48.60;;;;;;4990123;28;20023;-76
2021/06/14 09:32:58;;;;;;;3.97;2.03;;;25.40;48.70;;;;;;4992636;28;20026;-76
2021/06/14 09:35:30;;;;;;;5.63;2.70;;;25.60;49.20;;;;;;4993085;28;20497;-76
2021/06/14 09:38:06;;;;;;;6.65;3.28;;;25.80;50.10;;;;;;4989065;28;20053;-76
2021/06/14 09:40:42;;;;;;;6.57;2.60;;;25.80;46.40;;;;;;4983956;28;20030;-79
2021/06/14 09:43:21;;;;;;;9.63;2.60;;;25.40;46.90;;;;;;4989990;28;20045;-77
2021/06/14 09:45:47;;;;;;;7.05;2.88;;;25.50;48.30;;;;;;4992493;28;20038;-77
2021/06/14 09:48:20;;;;;;;3.63;2.25;;;25.80;47.70;;;;;;4980622;28;20089;-77
2021/06/14 09:50:48;;;;;;;5.43;2.97;;;26.00;47.50;;;;;;4983795;28;20027;-77
2021/06/14 09:53:16;;;;;;;6.03;2.67;;;26.10;46.40;;;;;;4990907;28;20042;-77
2021/06/14 09:55:43;;;;;;;5.15;2.90;;;25.70;46.00;;;;;;4991967;28;20025;-77
2021/06/14 09:58:13;;;;;;;6.75;3.92;;;25.80;47.30;;;;;;4988947;28;20494;-77
2021/06/14 10:00:50;;;;;;;5.18;2.80;;;25.90;46.90;;;;;;4992297;28;20649;-77
2021/06/14 10:03:16;;;;;;;3.83;2.17;;;25.70;49.10;;;;;;4990427;28;20113;-78
2021/06/14 10:05:47;;;;;;;7.13;3.03;;;25.70;48.10;;;;;;4987176;28;20114;-77
2021/06/14 10:08:12;;;;;;;5.53;2.25;;;25.90;48.90;;;;;;4989300;28;20026;-76
2021/06/14 10:10:39;;;;;;;8.52;3.20;;;25.90;47.40;;;;;;4991862;28;20084;-77
2021/06/14 10:13:05;;;;;;;4.25;2.85;;;26.00;47.50;;;;;;4989929;28;20034;-76
2021/06/14 10:15:37;;;;;;;7.30;2.92;;;26.20;46.80;;;;;;4986124;28;20528;-77
2021/06/14 10:18:11;;;;;;;6.05;3.35;;;26.40;46.20;;;;;;4993303;28;20050;-76
2021/06/14 10:20:38;;;;;;;8.27;2.55;;;26.10;45.40;;;;;;4999679;28;20053;-77
2021/06/14 10:23:05;;;;;;;8.57;3.05;;;26.00;46.60;;;;;;4998801;28;20404;-77
2021/06/14 10:25:32;;;;;;;6.13;3.15;;;26.30;47.30;;;;;;5000439;28;20034;-77
2021/06/14 10:27:58;;;;;;;8.48;3.28;;;26.70;46.20;;;;;;5004933;28;20037;-77
2021/06/14 10:30:25;;;;;;;4.13;2.75;;;26.80;46.10;;;;;;5000380;28;20021;-77
2021/06/14 10:32:51;;;;;;;10.60;3.95;;;26.90;45.40;;;;;;4995004;28;20105;-77
2021/06/14 10:35:18;;;;;;;9.32;3.22;;;27.00;46.60;;;;;;4990515;28;20046;-77
2021/06/14 10:37:46;;;;;;;19.08;3.65;;;27.00;46.20;;;;;;4992494;28;20535;-77
2021/06/14 10:40:14;;;;;;;7.28;2.70;;;26.90;45.60;;;;;;5006456;28;20029;-78
2021/06/14 10:42:41;;;;;;;14.48;2.85;;;27.10;46.10;;;;;;4999751;28;20040;-77
2021/06/14 10:45:09;;;;;;;9.18;2.95;;;27.40;45.30;;;;;;4998739;28;20061;-77
2021/06/14 10:47:36;;;;;;;8.70;2.70;;;27.40;45.20;;;;;;4996365;28;20026;-78
2021/06/14 10:50:03;;;;;;;6.68;2.40;;;27.40;44.80;;;;;;4999051;28;20619;-78
2021/06/14 10:52:39;;;;;;;4.93;2.28;;;27.40;45.30;;;;;;5000757;28;20396;-78
2021/06/14 10:55:10;;;;;;;11.70;2.33;;;27.40;44.10;;;;;;5001287;28;20025;-77
2021/06/14 10:57:36;;;;;;;6.47;3.05;;;27.20;44.30;;;;;;4999619;28;20405;-78
2021/06/14 11:00:03;;;;;;;10.15;3.33;;;27.30;45.20;;;;;;4998483;28;20066;-78
2021/06/14 11:02:28;;;;;;;16.25;3.95;;;27.40;45.20;;;;;;4998458;28;20088;-78
2021/06/14 11:05:05;;;;;;;6.82;2.67;;;27.50;45.20;;;;;;4999788;28;20029;-77
2021/06/14 11:07:31;;;;;;;18.85;3.72;;;27.60;45.50;;;;;;5005221;28;20120;-77
2021/06/14 11:09:57;;;;;;;8.43;2.50;;;27.90;45.10;;;;;;5003254;28;20052;-79
2021/06/14 11:12:27;;;;;;;10.43;3.13;;;28.10;44.10;;;;;;5005423;28;20022;-79
2021/06/14 11:14:53;;;;;;;16.27;3.00;;;28.20;44.60;;;;;;5016059;28;20033;-78
2021/06/14 11:17:26;;;;;;;10.52;2.97;;;28.10;44.30;;;;;;4999544;28;20081;-77
2021/06/14 11:20:05;;;;;;;9.77;2.65;;;28.10;43.90;;;;;;5002733;28;20416;-77
2021/06/14 11:22:46;;;;;;;9.82;2.90;;;28.20;43.80;;;;;;4997773;28;20029;-79
2021/06/14 11:25:24;;;;;;;28.40;4.03;;;28.30;43.80;;;;;;5015151;28;20444;-79
2021/06/14 11:27:50;;;;;;;4.50;2.30;;;28.50;44.40;;;;;;4999826;28;20034;-77
2021/06/14 11:30:19;;;;;;;7.65;2.65;;;28.50;43.90;;;;;;4999079;28;20026;-77
2021/06/14 11:32:44;;;;;;;3.67;1.70;;;28.50;43.50;;;;;;4999993;28;20042;-77
2021/06/14 11:35:13;;;;;;;7.00;2.30;;;28.50;43.60;;;;;;4999542;28;20043;-77
2021/06/14 11:37:40;;;;;;;4.45;2.38;;;28.40;43.50;;;;;;4997927;28;20030;-78
2021/06/14 11:40:11;;;;;;;12.68;3.53;;;28.10;44.00;;;;;;4996470;28;20033;-77
2021/06/14 11:42:47;;;;;;;7.13;2.42;;;28.20;44.30;;;;;;4999869;28;20400;-77
2021/06/14 11:45:52;;;;;;;9.23;2.22;;;28.40;43.70;;;;;;4997417;28;20076;-78
2021/06/14 11:48:25;;;;;;;5.57;2.22;;;28.40;44.10;;;;;;4928488;29;20044;-78
2021/06/14 11:51:03;;;;;;;2.10;1.45;;;28.50;42.90;;;;;;4928246;29;20027;-77
2021/06/14 11:53:40;;;;;;;2.08;1.40;;;28.60;44.00;;;;;;4970661;28;20125;-78
2021/06/14 11:56:09;;;;;;;4.35;2.05;;;28.60;44.40;;;;;;4998089;28;20026;-78
2021/06/14 11:58:36;;;;;;;2.70;1.88;;;28.70;43.70;;;;;;4998344;28;20040;-78
2021/06/14 12:01:05;;;;;;;6.43;2.65;;;28.60;43.80;;;;;;4997961;28;20030;-76
2021/06/14 12:03:31;;;;;;;3.33;2.13;;;28.80;43.70;;;;;;4999924;28;20025;-77
2021/06/14 12:05:56;;;;;;;4.57;2.38;;;28.80;44.10;;;;;;5000437;28;20050;-77
2021/06/14 12:08:24;;;;;;;4.35;2.50;;;28.90;43.50;;;;;;4996592;28;20033;-78
2021/06/14 12:10:55;;;;;;;4.13;2.38;;;28.90;44.00;;;;;;4998945;28;20114;-78
2021/06/14 12:13:22;;;;;;;5.13;2.58;;;29.10;43.40;;;;;;5013636;28;20607;-77
2021/06/14 12:15:53;;;;;;;4.25;2.42;;;29.00;43.50;;;;;;5005933;28;20492;-77
2021/06/14 12:18:19;;;;;;;5.72;2.47;;;29.00;44.10;;;;;;5013298;28;20042;-77
2021/06/14 12:20:49;;;;;;;12.90;3.00;;;29.10;43.70;;;;;;5000368;28;20026;-79
2021/06/14 12:23:16;;;;;;;9.38;3.53;;;29.10;43.80;;;;;;4996970;28;20027;-76
2021/06/14 12:25:45;;;;;;;8.02;3.40;;;29.40;43.80;;;;;;4997601;28;20095;-76
2021/06/14 12:28:17;;;;;;;8.70;3.15;;;29.50;43.70;;;;;;4995279;28;20034;-77
2021/06/14 12:30:46;;;;;;;82.93;7.57;;;29.50;44.10;;;;;;4998590;28;20026;-76
2021/06/14 12:33:11;;;;;;;30.33;5.07;;;29.70;44.10;;;;;;4997490;28;20057;-76
2021/06/14 12:35:39;;;;;;;14.75;3.92;;;29.60;43.50;;;;;;4999516;28;20418;-75
2021/06/14 12:38:11;;;;;;;40.13;4.82;;;29.70;43.90;;;;;;4998378;28;20083;-76
2021/06/14 12:40:39;;;;;;;13.10;3.92;;;29.90;42.80;;;;;;4996762;28;20592;-76
2021/06/14 12:43:06;;;;;;;7.63;2.22;;;29.80;42.70;;;;;;4995676;28;20022;-76
2021/06/14 12:45:33;;;;;;;13.20;3.10;;;29.50;41.90;;;;;;4994609;28;20397;-76
2021/06/14 12:48:03;;;;;;;18.98;3.78;;;28.90;42.80;;;;;;4995959;28;20049;-76
2021/06/14 12:50:36;;;;;;;35.92;4.82;;;28.60;43.50;;;;;;4999725;28;20025;-76
2021/06/14 12:53:03;;;;;;;12.32;3.47;;;28.70;44.10;;;;;;4997862;28;20022;-76